Time;durP1;ratioP1;P1;durP2;ratioP2;P2;SDS_P1;SDS_P2;PMS_P1;PMS_P2;Temp;Humidity;BMP_temperature;BMP_pressure;BME280_temperature;BME280_humidity;BME280_pressure;Samples;Min_cycle;Max_cycle;Signal;HPM_P1;HPM_P2
2023/01/15 00:00:07;;;;;;;26.88;17.10;;;;;;;;;;5034517;28;20051;-90
2023/01/15 00:02:33;;;;;;;29.95;17.85;;;;;;;;;;5034676;28;20044;-89
2023/01/15 00:05:02;;;;;;;30.58;19.20;;;;;;;;;;5035732;28;20043;-85
2023/01/15 00:07:31;;;;;;;28.45;17.48;;;;;;;;;;5038336;28;20017;-90
2023/01/15 00:09:57;;;;;;;33.35;18.00;;;;;;;;;;5036389;28;20060;-87
2023/01/15 00:12:23;;;;;;;31.45;18.90;;;;;;;;;;5035527;28;20040;-85
2023/01/15 00:14:49;;;;;;;39.40;20.92;;;;;;;;;;5035431;28;20090;-85
2023/01/15 00:17:18;;;;;;;41.28;23.05;;;;;;;;;;5034994;28;20461;-87
2023/01/15 00:19:44;;;;;;;48.67;26.75;;;;;;;;;;5049771;28;20036;-89
2023/01/15 00:22:10;;;;;;;50.10;25.25;;;;;;;;;;5034831;28;20241;-86
2023/01/15 00:27:39;;;;;;;43.70;24.23;;;;;;;;;;5053221;28;20435;-87
2023/01/15 00:30:06;;;;;;;52.95;28.05;;;;;;;;;;5034661;28;20035;-89
2023/01/15 00:32:32;;;;;;;39.95;21.48;;;;;;;;;;5035187;28;20311;-88
2023/01/15 00:34:58;;;;;;;47.22;25.20;;;;;;;;;;5034967;28;20029;-92
2023/01/15 00:37:24;;;;;;;42.88;24.75;;;;;;;;;;5034775;28;20032;-89
2023/01/15 00:39:54;;;;;;;42.95;23.33;;;;;;;;;;5034545;28;20426;-89
2023/01/15 00:42:26;;;;;;;37.63;21.65;;;;;;;;;;5034839;28;20024;-87
2023/01/15 00:44:55;;;;;;;37.47;22.05;;;;;;;;;;5036971;28;20537;-90
2023/01/15 00:47:21;;;;;;;35.45;20.85;;;;;;;;;;5036537;28;20033;-86
2023/01/15 00:49:50;;;;;;;34.72;20.35;;;;;;;;;;5035219;28;20033;-87
2023/01/15 00:52:16;;;;;;;39.17;21.38;;;;;;;;;;5037018;28;20114;-87
2023/01/15 00:54:43;;;;;;;34.33;20.75;;;;;;;;;;5048961;28;20025;-86
2023/01/15 00:57:12;;;;;;;32.42;19.23;;;;;;;;;;5046210;28;20055;-86
2023/01/15 00:59:38;;;;;;;34.28;20.70;;;;;;;;;;5054089;28;20052;-90
2023/01/15 01:02:04;;;;;;;36.00;20.63;;;;;;;;;;5034300;28;20025;-86
2023/01/15 01:04:30;;;;;;;35.92;21.23;;;;;;;;;;5034364;28;20325;-86
2023/01/15 01:06:56;;;;;;;42.28;25.50;;;;;;;;;;5036920;28;20021;-86
2023/01/15 01:09:25;;;;;;;38.00;24.42;;;;;;;;;;5046179;28;20032;-87
2023/01/15 01:11:51;;;;;;;42.85;25.88;;;;;;;;;;5037682;28;20044;-86
2023/01/15 01:14:17;;;;;;;32.55;19.25;;;;;;;;;;5035792;28;20143;-87
2023/01/15 01:16:43;;;;;;;31.98;20.10;;;;;;;;;;5044556;28;20025;-86
2023/01/15 01:19:14;;;;;;;37.00;22.42;;;;;;;;;;5036936;28;20036;-91
2023/01/15 01:21:41;;;;;;;38.97;22.88;;;;;;;;;;5033525;28;20033;-87
2023/01/15 01:24:13;;;;;;;33.15;20.58;;;;;;;;;;5033689;28;20044;-89
2023/01/15 01:26:43;;;;;;;37.90;21.40;;;;;;;;;;5033855;28;20128;-86
2023/01/15 01:29:14;;;;;;;29.02;17.75;;;;;;;;;;5033436;28;20416;-91
2023/01/15 01:31:40;;;;;;;24.00;15.95;;;;;;;;;;5033829;28;20360;-86
2023/01/15 01:34:09;;;;;;;24.25;14.32;;;;;;;;;;5033749;28;20082;-90
2023/01/15 01:36:39;;;;;;;21.42;13.70;;;;;;;;;;5033438;28;20083;-91
2023/01/15 01:39:06;;;;;;;21.75;14.32;;;;;;;;;;5050168;28;20075;-90
2023/01/15 01:41:33;;;;;;;26.42;17.17;;;;;;;;;;5033791;28;20044;-89
2023/01/15 01:44:00;;;;;;;30.13;17.25;;;;;;;;;;5033603;28;20083;-85
2023/01/15 01:46:27;;;;;;;30.38;15.60;;;;;;;;;;5033824;28;20035;-88
2023/01/15 01:48:56;;;;;;;29.58;18.60;;;;;;;;;;5033524;28;20124;-93
2023/01/15 01:51:24;;;;;;;30.25;18.48;;;;;;;;;;5033219;28;20155;-91
2023/01/15 01:53:50;;;;;;;27.45;15.88;;;;;;;;;;5033639;28;20040;-85
2023/01/15 01:56:17;;;;;;;31.40;18.17;;;;;;;;;;5033843;28;20100;-87
2023/01/15 01:58:45;;;;;;;27.50;16.42;;;;;;;;;;5030011;28;20056;-91
2023/01/15 02:01:11;;;;;;;30.67;17.35;;;;;;;;;;5030367;28;20482;-88
2023/01/15 02:03:40;;;;;;;27.17;16.63;;;;;;;;;;5033637;28;20124;-93
2023/01/15 02:06:08;;;;;;;24.95;15.88;;;;;;;;;;5033168;28;20029;-86
2023/01/15 02:08:40;;;;;;;23.25;15.32;;;;;;;;;;5033408;28;20049;-88
2023/01/15 02:11:09;;;;;;;26.85;15.65;;;;;;;;;;5038839;28;20033;-92
2023/01/15 02:13:40;;;;;;;21.02;13.60;;;;;;;;;;5033815;28;20021;-86
2023/01/15 02:16:18;;;;;;;24.38;14.23;;;;;;;;;;5033380;28;20028;-91
2023/01/15 02:18:50;;;;;;;18.23;12.60;;;;;;;;;;5037382;28;20112;-92
2023/01/15 02:21:30;;;;;;;27.35;16.13;;;;;;;;;;5037510;28;20032;-91
2023/01/15 02:24:11;;;;;;;28.70;18.00;;;;;;;;;;5036847;28;20025;-87
2023/01/15 02:26:49;;;;;;;27.70;17.98;;;;;;;;;;5036865;28;20057;-87
2023/01/15 02:29:21;;;;;;;25.30;16.27;;;;;;;;;;5036792;28;20545;-88
2023/01/15 02:31:51;;;;;;;23.88;16.00;;;;;;;;;;5037100;28;20059;-92
2023/01/15 02:34:23;;;;;;;25.10;15.05;;;;;;;;;;5036905;28;20025;-93
2023/01/15 02:36:54;;;;;;;21.48;13.15;;;;;;;;;;5036745;28;20466;-91
2023/01/15 02:39:21;;;;;;;23.75;14.20;;;;;;;;;;5036851;28;20029;-87
2023/01/15 02:41:50;;;;;;;25.15;16.67;;;;;;;;;;5036718;28;20025;-87
2023/01/15 02:44:17;;;;;;;27.60;16.67;;;;;;;;;;5037030;28;20040;-87
2023/01/15 02:46:45;;;;;;;24.48;14.88;;;;;;;;;;5036599;28;20040;-88
2023/01/15 02:49:13;;;;;;;25.40;15.13;;;;;;;;;;5036910;28;20029;-86
2023/01/15 02:51:43;;;;;;;27.38;15.98;;;;;;;;;;5037739;28;20040;-86
2023/01/15 02:54:12;;;;;;;26.58;16.05;;;;;;;;;;5041209;28;20147;-87
2023/01/15 02:56:40;;;;;;;22.90;14.88;;;;;;;;;;5038959;28;20466;-87
2023/01/15 02:59:08;;;;;;;23.33;13.88;;;;;;;;;;5036442;28;20056;-88
2023/01/15 03:01:38;;;;;;;25.63;15.15;;;;;;;;;;5037175;28;20043;-90
2023/01/15 03:04:20;;;;;;;21.52;13.30;;;;;;;;;;5054731;28;20064;-88
2023/01/15 03:06:52;;;;;;;20.20;13.90;;;;;;;;;;5042395;28;20029;-87
2023/01/15 03:09:19;;;;;;;25.48;14.80;;;;;;;;;;5039195;28;20535;-88
2023/01/15 03:11:59;;;;;;;19.15;12.55;;;;;;;;;;5036557;28;20021;-87
2023/01/15 03:14:35;;;;;;;19.52;12.70;;;;;;;;;;5035798;28;20029;-87
2023/01/15 03:17:08;;;;;;;32.15;17.73;;;;;;;;;;5035837;28;20071;-92
2023/01/15 03:19:50;;;;;;;27.63;15.63;;;;;;;;;;5036827;28;20025;-87
2023/01/15 03:22:22;;;;;;;23.83;14.30;;;;;;;;;;5033537;28;20029;-87
2023/01/15 03:24:54;;;;;;;24.60;14.87;;;;;;;;;;5035896;28;20614;-91
2023/01/15 03:27:20;;;;;;;25.63;15.88;;;;;;;;;;5036852;28;20762;-87
2023/01/15 03:29:48;;;;;;;26.67;16.25;;;;;;;;;;5034960;28;20029;-86
2023/01/15 03:32:15;;;;;;;26.13;15.45;;;;;;;;;;5036072;28;20567;-86
2023/01/15 03:34:52;;;;;;;26.50;15.60;;;;;;;;;;5050483;28;20027;-86
2023/01/15 03:37:19;;;;;;;23.08;13.88;;;;;;;;;;5040656;28;20025;-88
2023/01/15 03:39:45;;;;;;;21.77;13.65;;;;;;;;;;5053668;28;20032;-87
2023/01/15 03:42:30;;;;;;;29.48;16.58;;;;;;;;;;5035670;28;20124;-92
2023/01/15 03:45:08;;;;;;;23.30;14.40;;;;;;;;;;5053259;28;20033;-88
2023/01/15 03:47:42;;;;;;;22.85;13.05;;;;;;;;;;5035935;28;20401;-87
2023/01/15 03:50:08;;;;;;;21.92;12.95;;;;;;;;;;5036431;28;20474;-86
2023/01/15 03:52:43;;;;;;;20.88;13.20;;;;;;;;;;5036008;28;20021;-91
2023/01/15 03:55:12;;;;;;;25.42;15.30;;;;;;;;;;5035412;28;20040;-92
2023/01/15 03:57:43;;;;;;;20.30;13.32;;;;;;;;;;5035537;28;20021;-87
2023/01/15 04:00:13;;;;;;;28.20;16.67;;;;;;;;;;5035352;28;20057;-88
2023/01/15 04:02:40;;;;;;;21.52;13.35;;;;;;;;;;5034975;28;20048;-87
2023/01/15 04:05:06;;;;;;;24.33;15.68;;;;;;;;;;5035105;28;20033;-86
2023/01/15 04:07:33;;;;;;;23.13;14.40;;;;;;;;;;5035262;28;20041;-86
2023/01/15 04:10:02;;;;;;;25.27;13.77;;;;;;;;;;5035004;28;20029;-88
2023/01/15 04:12:32;;;;;;;21.77;13.90;;;;;;;;;;5035078;28;20470;-92
2023/01/15 04:14:58;;;;;;;23.17;14.55;;;;;;;;;;5034762;28;20111;-86
2023/01/15 04:17:24;;;;;;;24.42;15.00;;;;;;;;;;5034741;28;20028;-87
2023/01/15 04:22:39;;;;;;;23.33;14.77;;;;;;;;;;5052496;28;20143;-87
2023/01/15 04:25:08;;;;;;;20.80;13.18;;;;;;;;;;5034699;28;20040;-92
2023/01/15 04:27:34;;;;;;;29.77;16.73;;;;;;;;;;5029639;28;20025;-86
2023/01/15 04:30:00;;;;;;;26.85;16.35;;;;;;;;;;5034752;28;20027;-86
2023/01/15 04:32:29;;;;;;;21.98;11.93;;;;;;;;;;5034945;28;20021;-88
2023/01/15 04:34:55;;;;;;;24.95;15.98;;;;;;;;;;5035000;28;20123;-87
2023/01/15 04:37:21;;;;;;;25.02;15.30;;;;;;;;;;5034623;28;20028;-86
2023/01/15 04:39:50;;;;;;;24.20;13.13;;;;;;;;;;5033757;28;20033;-86
2023/01/15 04:45:01;;;;;;;24.90;14.50;;;;;;;;;;5052548;28;20051;-86
2023/01/15 04:47:30;;;;;;;18.63;12.38;;;;;;;;;;5034463;28;20025;-87
2023/01/15 04:49:56;;;;;;;23.02;13.63;;;;;;;;;;5034108;28;20029;-86
2023/01/15 04:52:22;;;;;;;20.63;13.07;;;;;;;;;;5039702;28;20044;-89
2023/01/15 04:54:49;;;;;;;25.10;13.98;;;;;;;;;;5041419;28;20060;-87
2023/01/15 04:57:17;;;;;;;27.02;15.68;;;;;;;;;;5057580;28;20025;-86
2023/01/15 04:59:43;;;;;;;23.75;13.52;;;;;;;;;;5039041;28;20044;-93
2023/01/15 05:02:09;;;;;;;23.20;14.52;;;;;;;;;;5035026;28;20049;-87
2023/01/15 05:04:41;;;;;;;24.85;14.10;;;;;;;;;;5034219;28;20089;-86
2023/01/15 05:07:07;;;;;;;21.20;12.70;;;;;;;;;;5034136;28;20021;-88
2023/01/15 05:09:33;;;;;;;25.70;14.50;;;;;;;;;;5034391;28;20084;-86
2023/01/15 05:12:02;;;;;;;26.40;13.90;;;;;;;;;;5034020;28;20115;-86
2023/01/15 05:14:28;;;;;;;27.63;14.93;;;;;;;;;;5034049;28;20025;-86
2023/01/15 05:16:55;;;;;;;24.33;14.15;;;;;;;;;;5034022;28;20059;-86
2023/01/15 05:19:21;;;;;;;23.08;14.65;;;;;;;;;;5033845;28;20051;-85
2023/01/15 05:21:47;;;;;;;23.75;13.77;;;;;;;;;;5034175;28;20021;-86
2023/01/15 05:24:14;;;;;;;34.63;19.25;;;;;;;;;;5033585;28;20032;-90
2023/01/15 05:26:41;;;;;;;21.83;13.95;;;;;;;;;;5034011;28;20109;-84
2023/01/15 05:29:07;;;;;;;21.33;13.85;;;;;;;;;;5033757;28;20029;-85
2023/01/15 05:31:33;;;;;;;23.50;13.13;;;;;;;;;;5033655;28;20080;-84
2023/01/15 05:33:59;;;;;;;21.40;11.95;;;;;;;;;;5033546;28;20033;-88
2023/01/15 05:36:27;;;;;;;24.15;13.80;;;;;;;;;;5033679;28;20033;-88
2023/01/15 05:38:53;;;;;;;22.83;12.85;;;;;;;;;;5033939;28;20381;-85
2023/01/15 05:44:06;;;;;;;24.50;14.73;;;;;;;;;;5051506;28;20313;-86
2023/01/15 05:46:33;;;;;;;19.40;12.02;;;;;;;;;;5033981;28;20048;-85
2023/01/15 05:49:03;;;;;;;17.67;10.02;;;;;;;;;;5033548;28;20025;-92
2023/01/15 05:51:29;;;;;;;17.80;10.50;;;;;;;;;;5034167;28;20036;-89
2023/01/15 05:53:59;;;;;;;19.90;11.25;;;;;;;;;;5038202;28;20025;-88
2023/01/15 05:56:25;;;;;;;15.90;9.43;;;;;;;;;;5038107;28;20426;-87
2023/01/15 05:58:51;;;;;;;18.23;10.20;;;;;;;;;;5037655;28;20053;-90
2023/01/15 06:01:21;;;;;;;17.42;8.95;;;;;;;;;;5041364;28;20058;-88
2023/01/15 06:03:52;;;;;;;15.27;9.32;;;;;;;;;;5037132;28;20614;-88
2023/01/15 06:06:18;;;;;;;18.35;9.55;;;;;;;;;;5036010;28;20375;-92
2023/01/15 06:08:45;;;;;;;17.95;9.52;;;;;;;;;;5039795;28;20123;-87
2023/01/15 06:11:11;;;;;;;17.75;9.55;;;;;;;;;;5038308;28;20029;-86
2023/01/15 06:13:40;;;;;;;14.70;8.30;;;;;;;;;;5041832;28;20032;-88
2023/01/15 06:16:09;;;;;;;21.58;9.88;;;;;;;;;;5053814;28;20116;-87
2023/01/15 06:18:36;;;;;;;21.55;10.65;;;;;;;;;;5037728;28;20074;-86
2023/01/15 06:21:05;;;;;;;20.88;10.40;;;;;;;;;;5037203;28;20025;-87
2023/01/15 06:23:35;;;;;;;20.40;11.18;;;;;;;;;;5037044;28;20043;-88
2023/01/15 06:26:02;;;;;;;15.23;9.18;;;;;;;;;;5036635;28;20025;-87
2023/01/15 06:28:28;;;;;;;18.73;9.80;;;;;;;;;;5037016;28;20049;-88
2023/01/15 06:30:54;;;;;;;22.65;11.98;;;;;;;;;;5037690;28;20464;-88
2023/01/15 06:33:20;;;;;;;14.90;9.90;;;;;;;;;;5039190;28;20032;-87
2023/01/15 06:35:46;;;;;;;18.05;10.98;;;;;;;;;;5038539;28;20029;-87
2023/01/15 06:38:12;;;;;;;17.80;10.15;;;;;;;;;;5039195;28;20021;-88
2023/01/15 06:40:39;;;;;;;18.67;9.90;;;;;;;;;;5039481;28;20119;-86
2023/01/15 06:48:34;;;;;;;17.83;9.63;;;;;;;;;;5060535;28;20491;-87
2023/01/15 06:51:06;;;;;;;18.50;10.85;;;;;;;;;;5041503;28;20048;-86
2023/01/15 06:53:32;;;;;;;18.38;10.35;;;;;;;;;;5040741;28;20095;-92
2023/01/15 06:55:58;;;;;;;20.67;11.05;;;;;;;;;;5038919;28;20078;-86
2023/01/15 06:58:24;;;;;;;19.10;10.68;;;;;;;;;;5056701;28;20397;-87
2023/01/15 07:03:35;;;;;;;18.25;10.10;;;;;;;;;;5094984;23;20090;-89
2023/01/15 07:09:08;;;;;;;20.50;10.52;;;;;;;;;;5092803;23;20118;-96
2023/01/15 07:14:09;;;;;;;17.52;10.60;;;;;;;;;;5090749;22;20520;-93
2023/01/15 07:16:38;;;;;;;22.20;11.65;;;;;;;;;;5079569;28;20482;-92
2023/01/15 07:19:29;;;;;;;20.35;10.43;;;;;;;;;;5073922;28;20032;-91
2023/01/15 07:21:55;;;;;;;17.08;9.40;;;;;;;;;;5073610;28;20029;-87
2023/01/15 07:24:21;;;;;;;20.60;10.77;;;;;;;;;;5072210;28;20040;-89
2023/01/15 07:26:47;;;;;;;16.08;9.10;;;;;;;;;;5073680;28;20043;-87
2023/01/15 07:29:13;;;;;;;17.20;10.05;;;;;;;;;;5072646;28;20473;-87
2023/01/15 07:31:40;;;;;;;19.05;9.98;;;;;;;;;;5074740;28;20527;-88
2023/01/15 07:34:06;;;;;;;16.23;9.95;;;;;;;;;;5063125;28;20060;-88
2023/01/15 07:36:32;;;;;;;17.77;10.57;;;;;;;;;;5055674;28;20136;-90
2023/01/15 07:39:06;;;;;;;18.02;9.38;;;;;;;;;;5067185;28;20033;-93
2023/01/15 07:49:47;;;;;;;16.50;9.70;;;;;;;;;;5075798;28;20036;-89
2023/01/15 07:52:17;;;;;;;15.20;9.48;;;;;;;;;;5073853;28;20123;-87
2023/01/15 07:55:02;;;;;;;13.35;8.55;;;;;;;;;;5073757;28;20099;-93
2023/01/15 07:57:29;;;;;;;12.73;8.07;;;;;;;;;;5073935;28;20538;-91
2023/01/15 07:59:55;;;;;;;13.80;8.25;;;;;;;;;;5073466;28;20461;-87
2023/01/15 08:02:21;;;;;;;14.40;8.98;;;;;;;;;;5074527;28;20094;-88
2023/01/15 08:04:47;;;;;;;14.95;8.65;;;;;;;;;;5074467;28;20485;-94
2023/01/15 08:07:14;;;;;;;17.13;10.20;;;;;;;;;;5074353;28;20031;-87
2023/01/15 08:09:43;;;;;;;17.67;9.63;;;;;;;;;;5073387;28;20119;-90
2023/01/15 08:15:15;;;;;;;15.18;9.48;;;;;;;;;;5075358;28;20167;-88
2023/01/15 08:17:45;;;;;;;15.73;9.07;;;;;;;;;;5072974;28;20059;-88
2023/01/15 08:20:13;;;;;;;18.50;9.00;;;;;;;;;;5073646;28;20029;-88
2023/01/15 08:22:39;;;;;;;17.02;9.93;;;;;;;;;;5074318;28;20135;-88
2023/01/15 08:25:06;;;;;;;15.50;9.70;;;;;;;;;;5076054;28;20032;-87
2023/01/15 08:27:32;;;;;;;17.35;9.80;;;;;;;;;;5074276;28;20082;-89
2023/01/15 08:29:58;;;;;;;17.80;10.15;;;;;;;;;;5073722;28;20025;-87
2023/01/15 08:32:25;;;;;;;16.42;9.85;;;;;;;;;;5067782;28;20025;-86
2023/01/15 08:34:51;;;;;;;15.50;9.60;;;;;;;;;;5063906;28;20031;-86
2023/01/15 08:37:17;;;;;;;17.83;11.25;;;;;;;;;;5074740;28;20119;-85
2023/01/15 08:39:44;;;;;;;19.75;11.57;;;;;;;;;;5078345;28;20183;-89
2023/01/15 08:42:10;;;;;;;16.98;10.52;;;;;;;;;;5073763;28;20024;-86
2023/01/15 08:44:36;;;;;;;18.88;11.18;;;;;;;;;;5073700;28;20044;-85
2023/01/15 08:47:06;;;;;;;18.08;11.32;;;;;;;;;;5080946;28;20062;-89
2023/01/15 08:49:35;;;;;;;16.75;11.07;;;;;;;;;;5081531;28;20111;-91
2023/01/15 08:52:01;;;;;;;17.58;10.70;;;;;;;;;;5074812;28;20024;-90
2023/01/15 08:54:27;;;;;;;17.98;10.93;;;;;;;;;;5076681;28;20070;-90
2023/01/15 08:56:53;;;;;;;18.10;10.82;;;;;;;;;;5087202;28;20046;-91
2023/01/15 08:59:22;;;;;;;19.52;11.63;;;;;;;;;;5074847;28;20036;-87
2023/01/15 09:01:57;;;;;;;18.77;11.02;;;;;;;;;;5076322;28;20025;-88
2023/01/15 09:04:24;;;;;;;16.63;10.18;;;;;;;;;;5073280;28;20033;-88
2023/01/15 09:06:56;;;;;;;17.20;11.23;;;;;;;;;;5074152;28;20107;-89
2023/01/15 09:09:22;;;;;;;18.13;10.63;;;;;;;;;;5073822;28;20025;-87
2023/01/15 09:11:48;;;;;;;19.10;11.63;;;;;;;;;;5073121;28;20031;-91
2023/01/15 09:14:17;;;;;;;17.95;10.32;;;;;;;;;;5072723;28;20040;-87
2023/01/15 09:16:47;;;;;;;17.35;10.75;;;;;;;;;;5072910;28;20427;-90
2023/01/15 09:19:13;;;;;;;17.83;11.20;;;;;;;;;;5072218;28;20082;-87
2023/01/15 09:21:42;;;;;;;17.60;11.35;;;;;;;;;;5072642;28;20028;-91
2023/01/15 09:24:08;;;;;;;18.48;11.07;;;;;;;;;;5072708;28;20039;-86
2023/01/15 09:26:38;;;;;;;18.25;11.18;;;;;;;;;;5071767;28;20036;-89
2023/01/15 09:29:06;;;;;;;19.90;12.60;;;;;;;;;;5072293;28;20024;-88
2023/01/15 09:31:32;;;;;;;18.48;11.32;;;;;;;;;;5072481;28;20033;-91
2023/01/15 09:33:58;;;;;;;20.88;11.48;;;;;;;;;;5073666;28;20103;-90
2023/01/15 09:36:29;;;;;;;18.70;11.30;;;;;;;;;;5072607;28;20058;-90
2023/01/15 09:38:56;;;;;;;20.15;11.93;;;;;;;;;;5072562;28;20032;-88
2023/01/15 09:50:24;;;;;;;17.65;11.25;;;;;;;;;;5277330;22;20300;-90
2023/01/15 09:52:50;;;;;;;19.58;11.07;;;;;;;;;;4995376;28;20065;-88
2023/01/15 09:55:36;;;;;;;17.98;11.70;;;;;;;;;;4995814;28;20022;-89
2023/01/15 09:58:06;;;;;;;19.08;12.23;;;;;;;;;;4995340;28;20042;-90
2023/01/15 10:00:35;;;;;;;19.95;12.30;;;;;;;;;;4994420;28;20033;-89
2023/01/15 10:03:24;;;;;;;19.35;12.18;;;;;;;;;;4994358;28;20061;-91
2023/01/15 10:06:11;;;;;;;21.77;13.23;;;;;;;;;;4994342;28;20446;-89
2023/01/15 10:08:40;;;;;;;21.35;13.60;;;;;;;;;;4891012;29;20055;-86
2023/01/15 10:12:34;;;;;;;22.25;13.98;;;;;;;;;;4982495;28;20038;-87
2023/01/15 10:14:25;;;;;;;22.02;13.20;;;;;;;;;;5012635;28;20042;-87
2023/01/15 10:16:52;;;;;;;22.95;13.93;;;;;;;;;;4997445;28;20022;-85
2023/01/15 10:19:18;;;;;;;22.30;12.82;;;;;;;;;;4997204;28;20467;-87
2023/01/15 10:21:58;;;;;;;21.27;12.40;;;;;;;;;;4996234;28;20022;-86
2023/01/15 10:24:47;;;;;;;24.10;13.82;;;;;;;;;;4997002;28;20042;-88
2023/01/15 10:27:26;;;;;;;22.80;13.40;;;;;;;;;;5014924;28;20438;-88
2023/01/15 10:29:55;;;;;;;27.05;13.30;;;;;;;;;;5014667;28;20053;-89
2023/01/15 10:32:30;;;;;;;21.88;12.77;;;;;;;;;;5008620;28;20021;-90
2023/01/15 10:34:58;;;;;;;22.50;14.60;;;;;;;;;;4999663;28;20117;-90
2023/01/15 10:37:30;;;;;;;21.55;14.13;;;;;;;;;;4996236;28;20064;-88
2023/01/15 10:40:16;;;;;;;23.98;15.18;;;;;;;;;;4999547;28;20120;-91
2023/01/15 10:42:45;;;;;;;23.75;15.30;;;;;;;;;;4999916;28;20384;-87
2023/01/15 10:45:26;;;;;;;23.00;14.82;;;;;;;;;;5000159;28;20030;-90
2023/01/15 10:48:05;;;;;;;23.10;14.40;;;;;;;;;;4995132;28;20117;-87
2023/01/15 10:50:32;;;;;;;26.50;16.05;;;;;;;;;;5004647;28;20061;-88
2023/01/15 10:53:13;;;;;;;26.02;15.25;;;;;;;;;;4999304;28;20029;-87
2023/01/15 10:55:39;;;;;;;25.75;15.32;;;;;;;;;;4991567;28;20057;-88
2023/01/15 10:58:16;;;;;;;24.98;14.35;;;;;;;;;;4999127;28;20387;-87
2023/01/15 11:00:45;;;;;;;25.27;14.57;;;;;;;;;;4999621;28;20563;-88
2023/01/15 11:03:20;;;;;;;23.73;15.02;;;;;;;;;;4999601;28;20022;-88
2023/01/15 11:05:46;;;;;;;22.95;15.20;;;;;;;;;;4999527;28;20045;-88
2023/01/15 11:09:11;;;;;;;27.35;15.88;;;;;;;;;;4999284;28;20018;-92
2023/01/15 11:19:35;;;;;;;21.17;13.27;;;;;;;;;;5009048;28;20034;-91
2023/01/15 11:20:07;;;;;;;22.48;14.18;;;;;;;;;;5019611;28;20088;-87
2023/01/15 11:22:51;;;;;;;23.70;14.10;;;;;;;;;;5000314;28;20053;-95
2023/01/15 11:25:45;;;;;;;26.30;15.02;;;;;;;;;;5006239;28;20019;-93
2023/01/15 11:30:59;;;;;;;24.65;14.45;;;;;;;;;;5013756;28;19919;-94
2023/01/15 11:33:35;;;;;;;22.63;14.73;;;;;;;;;;5002474;28;20049;-95
2023/01/15 11:39:30;;;;;;;21.40;13.90;;;;;;;;;;5020491;28;20064;-90
2023/01/15 11:51:19;;;;;;;28.55;16.73;;;;;;;;;;5015667;28;20118;-90
2023/01/15 11:54:02;;;;;;;20.92;14.25;;;;;;;;;;4998225;28;20030;-88
2023/01/15 11:56:30;;;;;;;23.42;14.88;;;;;;;;;;4995356;28;20468;-88
2023/01/15 11:58:59;;;;;;;22.85;14.68;;;;;;;;;;4998099;28;20057;-87
2023/01/15 12:01:30;;;;;;;22.90;14.90;;;;;;;;;;5015620;28;20753;-90
2023/01/15 12:03:57;;;;;;;24.98;15.40;;;;;;;;;;4997790;28;20041;-89
2023/01/15 12:06:39;;;;;;;25.27;15.60;;;;;;;;;;4997936;28;20026;-92
2023/01/15 12:09:23;;;;;;;22.38;14.93;;;;;;;;;;4998172;28;20072;-92
2023/01/15 12:11:52;;;;;;;20.65;14.23;;;;;;;;;;5015621;28;20022;-88
2023/01/15 12:14:18;;;;;;;22.35;14.85;;;;;;;;;;5004370;28;20034;-89
2023/01/15 12:17:07;;;;;;;22.42;14.82;;;;;;;;;;4998396;28;20030;-88
2023/01/15 12:19:36;;;;;;;22.50;15.05;;;;;;;;;;4998788;28;20043;-93
2023/01/15 12:22:05;;;;;;;27.08;16.38;;;;;;;;;;5017854;23;20766;-90
2023/01/15 12:24:47;;;;;;;24.67;16.50;;;;;;;;;;5019532;28;20045;-90
2023/01/15 12:27:28;;;;;;;28.08;17.42;;;;;;;;;;5029214;28;20038;-87
2023/01/15 12:33:10;;;;;;;27.00;16.33;;;;;;;;;;5035796;28;20090;-89
2023/01/15 12:38:51;;;;;;;23.95;15.20;;;;;;;;;;5301815;23;20064;-89
2023/01/15 12:47:18;;;;;;;26.90;16.70;;;;;;;;;;5035279;28;20084;-90
2023/01/15 12:49:48;;;;;;;26.45;16.13;;;;;;;;;;5018480;28;20030;-88
2023/01/15 12:52:23;;;;;;;27.98;16.90;;;;;;;;;;5029301;28;20022;-88
2023/01/15 12:54:52;;;;;;;26.70;17.35;;;;;;;;;;5022595;28;20040;-90
2023/01/15 12:57:24;;;;;;;32.80;19.55;;;;;;;;;;5018327;28;20030;-88
2023/01/15 12:59:59;;;;;;;31.65;18.85;;;;;;;;;;5018267;28;20029;-91
2023/01/15 13:02:47;;;;;;;29.38;18.45;;;;;;;;;;5016957;28;20026;-89
2023/01/15 13:05:22;;;;;;;31.77;19.20;;;;;;;;;;5018349;28;20044;-90
2023/01/15 13:08:07;;;;;;;32.10;19.05;;;;;;;;;;5017505;28;20033;-88
2023/01/15 13:10:38;;;;;;;29.48;19.42;;;;;;;;;;5016717;28;20083;-87
2023/01/15 13:13:16;;;;;;;32.75;18.90;;;;;;;;;;5016394;28;20109;-89
2023/01/15 13:15:50;;;;;;;33.75;22.30;;;;;;;;;;5016735;28;20049;-87
2023/01/15 13:18:23;;;;;;;31.27;19.65;;;;;;;;;;5016659;28;20044;-88
2023/01/15 13:20:53;;;;;;;36.63;22.33;;;;;;;;;;5016776;28;20074;-89
2023/01/15 13:29:53;;;;;;;29.98;18.40;;;;;;;;;;5033377;28;20083;-89
2023/01/15 13:32:27;;;;;;;29.10;18.27;;;;;;;;;;5016433;28;20128;-90
2023/01/15 13:35:00;;;;;;;33.63;21.27;;;;;;;;;;5016678;28;20033;-88
2023/01/15 13:37:29;;;;;;;37.47;22.85;;;;;;;;;;5016164;28;20029;-90
2023/01/15 13:40:02;;;;;;;29.42;18.83;;;;;;;;;;5016060;28;20083;-89
2023/01/15 13:42:36;;;;;;;36.38;20.65;;;;;;;;;;5014760;28;20132;-90
2023/01/15 13:45:26;;;;;;;39.90;23.02;;;;;;;;;;5015854;28;20046;-90
2023/01/15 13:48:00;;;;;;;33.13;21.23;;;;;;;;;;4979252;28;20231;-90
2023/01/15 13:50:38;;;;;;;43.92;22.98;;;;;;;;;;5016316;28;20037;-88
2023/01/15 13:53:23;;;;;;;38.28;22.80;;;;;;;;;;5016532;28;20057;-89
2023/01/15 13:56:01;;;;;;;40.65;23.65;;;;;;;;;;5015946;28;20044;-89
2023/01/15 13:58:38;;;;;;;37.67;22.67;;;;;;;;;;5015563;28;20047;-89
2023/01/15 14:01:27;;;;;;;39.08;23.10;;;;;;;;;;5015657;28;20053;-92
2023/01/15 14:04:12;;;;;;;36.97;21.45;;;;;;;;;;5015695;28;20069;-91
2023/01/15 14:06:51;;;;;;;30.15;19.27;;;;;;;;;;5015717;28;20018;-91
2023/01/15 14:09:23;;;;;;;29.27;18.92;;;;;;;;;;5016137;28;20056;-91
2023/01/15 14:12:08;;;;;;;31.15;17.25;;;;;;;;;;5016057;28;20022;-88
2023/01/15 14:14:41;;;;;;;31.45;18.83;;;;;;;;;;5020241;28;20017;-91
2023/01/15 14:17:13;;;;;;;30.38;18.65;;;;;;;;;;5021543;28;20037;-88
2023/01/15 14:20:02;;;;;;;27.35;17.65;;;;;;;;;;5021078;28;20068;-92
2023/01/15 14:23:08;;;;;;;33.38;20.52;;;;;;;;;;5045343;28;20774;-89
2023/01/15 14:28:48;;;;;;;32.63;20.08;;;;;;;;;;5058882;28;20136;-88
2023/01/15 14:31:23;;;;;;;32.38;20.67;;;;;;;;;;5046449;28;20013;-87
2023/01/15 14:34:08;;;;;;;28.38;18.15;;;;;;;;;;5009434;28;20046;-89
2023/01/15 14:36:38;;;;;;;35.15;22.02;;;;;;;;;;5019196;28;20037;-89
2023/01/15 14:39:06;;;;;;;31.17;19.13;;;;;;;;;;5000556;28;20049;-89
2023/01/15 14:43:00;;;;;;;34.85;21.48;;;;;;;;;;4999698;28;20034;-90
2023/01/15 14:44:41;;;;;;;35.42;22.70;;;;;;;;;;5016437;28;20041;-91
2023/01/15 14:47:19;;;;;;;33.45;20.75;;;;;;;;;;5009103;28;20021;-88
2023/01/15 14:49:52;;;;;;;30.70;20.05;;;;;;;;;;5019376;28;20033;-90
2023/01/15 14:52:41;;;;;;;28.65;16.88;;;;;;;;;;5018768;28;20155;-92
2023/01/15 14:55:14;;;;;;;27.83;18.25;;;;;;;;;;5003556;28;20059;-91
2023/01/15 14:57:48;;;;;;;38.15;24.88;;;;;;;;;;5022664;28;20467;-91
2023/01/15 15:00:16;;;;;;;28.88;18.20;;;;;;;;;;5021187;28;20025;-90
2023/01/15 15:02:46;;;;;;;30.10;18.98;;;;;;;;;;5020460;28;20025;-89
2023/01/15 15:05:14;;;;;;;32.00;20.52;;;;;;;;;;5019724;28;20050;-90
2023/01/15 15:07:54;;;;;;;26.35;18.00;;;;;;;;;;5020537;28;20454;-92
2023/01/15 15:10:39;;;;;;;28.48;18.83;;;;;;;;;;5005370;28;20033;-89
2023/01/15 15:13:16;;;;;;;35.03;23.90;;;;;;;;;;5034673;28;20117;-90
2023/01/15 15:15:49;;;;;;;30.25;20.65;;;;;;;;;;5019347;28;20127;-92
2023/01/15 15:18:26;;;;;;;30.70;19.70;;;;;;;;;;5020485;28;20037;-91
2023/01/15 15:20:56;;;;;;;31.48;21.92;;;;;;;;;;5020279;28;20029;-92
2023/01/15 15:23:28;;;;;;;29.60;19.70;;;;;;;;;;5019482;28;20040;-88
2023/01/15 15:25:59;;;;;;;26.52;18.40;;;;;;;;;;5018452;28;20084;-89
2023/01/15 15:28:26;;;;;;;33.67;21.35;;;;;;;;;;5016466;28;20029;-85
2023/01/15 15:31:12;;;;;;;28.90;19.08;;;;;;;;;;5018047;28;20022;-87
2023/01/15 15:33:39;;;;;;;27.13;18.83;;;;;;;;;;5226799;23;20050;-86
2023/01/15 15:36:08;;;;;;;27.58;18.95;;;;;;;;;;5034493;28;20022;-87
2023/01/15 15:38:39;;;;;;;30.80;19.85;;;;;;;;;;5017794;28;20123;-86
2023/01/15 15:41:06;;;;;;;30.45;20.65;;;;;;;;;;5018000;28;20025;-87
2023/01/15 15:49:20;;;;;;;40.90;26.58;;;;;;;;;;5036180;28;20136;-85
2023/01/15 15:51:53;;;;;;;35.55;23.10;;;;;;;;;;5035690;28;20030;-86
2023/01/15 15:54:20;;;;;;;38.38;24.20;;;;;;;;;;5017913;28;20048;-86
2023/01/15 15:56:49;;;;;;;36.00;23.73;;;;;;;;;;5017398;28;20509;-87
2023/01/15 15:59:22;;;;;;;34.33;25.23;;;;;;;;;;5017580;28;20113;-86
2023/01/15 16:01:49;;;;;;;33.70;22.85;;;;;;;;;;5017451;28;20026;-86
2023/01/15 16:04:19;;;;;;;31.10;22.35;;;;;;;;;;5017430;28;20033;-87
2023/01/15 16:06:45;;;;;;;59.65;37.33;;;;;;;;;;5016909;28;20032;-87
2023/01/15 16:09:11;;;;;;;51.03;32.28;;;;;;;;;;5017366;28;20083;-88
2023/01/15 16:11:40;;;;;;;39.90;26.73;;;;;;;;;;5017968;28;20156;-88
2023/01/15 16:14:11;;;;;;;36.75;24.23;;;;;;;;;;5035188;28;20465;-87